createdAt,value
2022-11-29T00:01:24.519Z,7.9
2022-11-29T00:03:25.829Z,7.9
2022-11-29T00:05:26.995Z,8
2022-11-29T00:09:29.497Z,8
2022-11-29T00:11:30.755Z,8
2022-11-29T00:13:31.992Z,8
2022-11-29T00:15:36.478Z,7.9
2022-11-29T00:17:37.705Z,7.9
2022-11-29T00:19:38.950Z,7.9
2022-11-29T00:22:07.318Z,7.9
2022-11-29T00:24:08.561Z,7.9
2022-11-29T00:26:09.781Z,7.9
2022-11-29T00:28:14.259Z,7.8
2022-11-29T00:36:19.233Z,7.8
2022-11-29T00:38:20.477Z,7.8
2022-11-29T00:40:21.719Z,7.8
2022-11-29T00:42:26.198Z,7.8
2022-11-29T00:44:27.428Z,7.8
2022-11-29T00:46:28.712Z,7.8
2022-11-29T00:48:29.935Z,7.7
2022-11-29T00:50:31.189Z,7.7
2022-11-29T00:52:32.411Z,7.7
2022-11-29T00:56:38.129Z,7.7
2022-11-29T00:58:39.383Z,7.8
2022-11-29T01:00:40.628Z,7.7
2022-11-29T01:02:41.930Z,7.7
2022-11-29T01:06:44.327Z,7.8
2022-11-29T01:10:50.116Z,7.8
2022-11-29T01:14:52.548Z,7.8
2022-11-29T01:15:54.797Z,7.8
2022-11-29T01:17:56.017Z,7.8
2022-11-29T01:19:57.255Z,7.7
2022-11-29T01:21:58.513Z,7.7
2022-11-29T01:24:03.014Z,7.8
2022-11-29T01:26:04.255Z,7.7
2022-11-29T01:30:06.704Z,7.7
2022-11-29T01:32:07.956Z,7.7
2022-11-29T01:34:09.098Z,7.7
2022-11-29T01:36:10.350Z,7.7
2022-11-29T01:38:14.830Z,7.8
2022-11-29T01:40:16.064Z,7.8
2022-11-29T01:42:17.320Z,7.8
2022-11-29T01:44:18.524Z,7.8
2022-11-29T01:46:19.841Z,7.8
2022-11-29T01:48:21.019Z,7.8
2022-11-29T01:50:22.226Z,7.7
2022-11-29T01:52:26.754Z,7.7
2022-11-29T01:54:27.981Z,7.7
2022-11-29T01:56:29.217Z,7.7
2022-11-29T01:58:30.466Z,7.7
2022-11-29T02:00:31.708Z,7.8
2022-11-29T02:02:32.975Z,7.8
2022-11-29T02:04:34.165Z,7.7
2022-11-29T02:06:38.673Z,7.8
2022-11-29T02:08:39.903Z,7.7
2022-11-29T02:10:41.141Z,7.7
2022-11-29T02:11:43.382Z,7.7
2022-11-29T02:13:44.605Z,7.7
2022-11-29T02:15:45.896Z,7.7
2022-11-29T02:17:47.106Z,7.7
2022-11-29T02:19:51.594Z,7.7
2022-11-29T02:21:52.819Z,7.7
2022-11-29T02:23:54.054Z,7.8
2022-11-29T02:27:56.521Z,7.7
2022-11-29T02:29:57.746Z,7.7
2022-11-29T02:34:03.509Z,7.8
2022-11-29T02:36:04.714Z,7.8
2022-11-29T02:38:05.966Z,7.8
2022-11-29T02:40:07.193Z,7.8
2022-11-29T02:46:10.936Z,7.8
2022-11-29T02:50:16.648Z,7.8
2022-11-29T02:52:17.895Z,7.7
2022-11-29T02:54:19.126Z,7.8
2022-11-29T02:56:20.347Z,7.8
2022-11-29T02:58:21.567Z,7.7
2022-11-29T03:00:22.814Z,7.7
2022-11-29T03:09:33.277Z,7.7
2022-11-29T03:11:34.515Z,7.7
2022-11-29T03:13:35.732Z,7.7
2022-11-29T03:15:40.265Z,7.7
2022-11-29T03:17:41.479Z,7.7
2022-11-29T03:19:42.697Z,7.7
2022-11-29T03:21:43.930Z,7.7
2022-11-29T03:23:45.140Z,7.7
2022-11-29T03:25:46.378Z,7.7
2022-11-29T03:27:47.634Z,7.8
2022-11-29T03:29:52.122Z,7.7
2022-11-29T03:31:53.363Z,7.7
2022-11-29T03:33:54.571Z,7.7
2022-11-29T03:35:55.838Z,7.7
2022-11-29T03:46:05.346Z,7.6
2022-11-29T03:48:06.512Z,7.6
2022-11-29T03:50:07.765Z,7.6
2022-11-29T03:52:09.004Z,7.6
2022-11-29T03:54:10.241Z,7.6
2022-11-29T03:56:11.457Z,7.6
2022-11-29T03:58:15.937Z,7.6
2022-11-29T04:00:17.194Z,7.6
2022-11-29T04:02:18.463Z,7.6
2022-11-29T04:04:35.046Z,7.7
2022-11-29T04:06:36.280Z,7.6
2022-11-29T04:10:42.021Z,7.6
2022-11-29T04:12:43.253Z,7.6
2022-11-29T04:16:45.713Z,7.6
2022-11-29T04:22:49.435Z,7.6
2022-11-29T04:24:53.915Z,7.4
2022-11-29T04:26:56.707Z,7.4
2022-11-29T04:28:57.904Z,7.4
2022-11-29T04:30:59.211Z,7.4
2022-11-29T04:33:00.395Z,7.5
2022-11-29T04:35:01.630Z,7.4
2022-11-29T04:37:02.838Z,7.5
2022-11-29T04:39:07.355Z,7.5
2022-11-29T04:41:08.573Z,7.5
2022-11-29T04:43:09.806Z,7.5
2022-11-29T04:45:11.039Z,7.5
2022-11-29T04:47:12.268Z,7.5
2022-11-29T04:49:13.504Z,7.5
2022-11-29T04:51:14.747Z,7.5
2022-11-29T04:53:19.245Z,7.4
2022-11-29T04:55:27.646Z,7.3
2022-11-29T04:57:21.674Z,7.3
2022-11-29T04:58:23.904Z,7.3
2022-11-29T05:00:25.162Z,7.4
2022-11-29T05:04:27.633Z,7.4
2022-11-29T05:06:32.105Z,7.4
2022-11-29T05:08:33.338Z,7.4
2022-11-29T05:10:34.723Z,7.4
2022-11-29T05:12:35.820Z,7.4
2022-11-29T05:14:37.059Z,7.5
2022-11-29T05:20:43.996Z,7.4
2022-11-29T05:22:45.235Z,7.4
2022-11-29T05:28:48.926Z,7.4
2022-11-29T05:32:51.424Z,7.4
2022-11-29T05:36:57.175Z,7.3
2022-11-29T05:38:58.376Z,7.3
2022-11-29T05:40:59.624Z,7.3
2022-11-29T05:43:00.842Z,7.3
2022-11-29T05:45:02.082Z,7.2
2022-11-29T05:47:03.318Z,7.2
2022-11-29T05:49:07.792Z,7.3
2022-11-29T05:54:12.507Z,7.3
2022-11-29T05:58:14.970Z,7.3
2022-11-29T06:00:16.212Z,7.3
2022-11-29T06:06:23.145Z,7.3
2022-11-29T06:08:24.391Z,7.3
2022-11-29T06:10:25.628Z,7.2
2022-11-29T06:12:26.870Z,7.1
2022-11-29T06:14:28.104Z,7.1
2022-11-29T06:16:32.638Z,7.2
2022-11-29T06:18:33.838Z,7.2
2022-11-29T06:20:35.102Z,7.1
2022-11-29T06:22:36.318Z,7.2
2022-11-29T06:24:37.562Z,7.3
2022-11-29T06:28:40.010Z,7.3
2022-11-29T06:30:44.501Z,7.2
2022-11-29T06:34:47.385Z,7.2
2022-11-29T06:42:51.928Z,7.2
2022-11-29T06:44:56.431Z,7.1
2022-11-29T06:46:57.712Z,7.1
2022-11-29T06:50:01.122Z,7.1
2022-11-29T06:52:02.378Z,7
2022-11-29T06:54:03.606Z,7
2022-11-29T06:56:04.842Z,7
2022-11-29T06:58:09.336Z,7
2022-11-29T07:02:11.887Z,7
2022-11-29T07:04:13.024Z,7
2022-11-29T07:06:14.275Z,6.9
2022-11-29T07:08:15.521Z,7
2022-11-29T07:10:16.722Z,7
2022-11-29T07:12:21.203Z,7
2022-11-29T07:14:22.443Z,7
2022-11-29T07:16:23.717Z,6.9
2022-11-29T07:18:24.928Z,7
2022-11-29T07:20:26.174Z,7.1
2022-11-29T07:24:28.630Z,7.1
2022-11-29T07:28:34.348Z,7
2022-11-29T07:30:35.591Z,6.9
2022-11-29T07:32:36.830Z,6.9
2022-11-29T07:34:38.049Z,6.9
2022-11-29T07:36:39.267Z,6.9
2022-11-29T07:38:40.497Z,6.9
2022-11-29T07:40:44.994Z,7
2022-11-29T07:42:46.227Z,6.9
2022-11-29T07:44:47.767Z,6.9
2022-11-29T07:47:15.855Z,7
2022-11-29T07:53:22.831Z,7
2022-11-29T07:55:24.060Z,7
2022-11-29T07:57:25.306Z,7
2022-11-29T07:59:26.498Z,7.1
2022-11-29T08:07:34.747Z,7
2022-11-29T08:09:35.935Z,7
2022-11-29T08:11:37.170Z,7
2022-11-29T08:13:38.404Z,7.1
2022-11-29T08:17:40.899Z,7.1
2022-11-29T08:19:42.113Z,7.2
2022-11-29T08:27:50.293Z,7.2
2022-11-29T08:29:51.519Z,7.3
2022-11-29T08:31:52.813Z,7.3
2022-11-29T08:33:53.967Z,7.3
2022-11-29T08:35:58.482Z,7.3
2022-11-29T08:40:00.964Z,7.3
2022-11-29T08:41:03.193Z,7.3
2022-11-29T08:43:04.426Z,7.3
2022-11-29T08:47:06.872Z,7.3
2022-11-29T08:49:11.352Z,7.4
2022-11-29T08:51:12.604Z,7.4
2022-11-29T08:53:13.819Z,7.3
2022-11-29T08:55:15.073Z,7.4
2022-11-29T08:57:39.132Z,7.4
2022-11-29T08:59:17.509Z,7.4
2022-11-29T09:01:18.898Z,7.4
2022-11-29T09:03:23.234Z,7.5
2022-11-29T09:05:24.487Z,7.4
2022-11-29T09:07:25.774Z,7.4
2022-11-29T09:09:26.931Z,7.4
2022-11-29T09:11:28.167Z,7.4
2022-11-29T09:13:29.400Z,7.4
2022-11-29T09:15:30.626Z,7.4
2022-11-29T09:17:35.103Z,7.5
2022-11-29T09:19:36.349Z,7.5
2022-11-29T09:21:37.590Z,7.6
2022-11-29T09:23:38.852Z,7.6
2022-11-29T09:25:40.084Z,7.6
2022-11-29T09:27:41.302Z,7.6
2022-11-29T09:29:42.553Z,7.6
2022-11-29T09:31:47.100Z,7.6
2022-11-29T09:33:48.275Z,7.6
2022-11-29T09:35:49.521Z,7.7
2022-11-29T09:36:51.757Z,7.7
2022-11-29T09:38:52.978Z,7.7
2022-11-29T09:40:54.239Z,7.7
2022-11-29T09:42:55.455Z,7.7
2022-11-29T09:44:59.950Z,7.7
2022-11-29T09:47:01.201Z,7.8
2022-11-29T09:49:02.449Z,7.8
2022-11-29T09:53:04.914Z,7.9
2022-11-29T09:55:06.139Z,7.9
2022-11-29T09:57:10.586Z,8
2022-11-29T09:59:11.920Z,8
2022-11-29T10:01:13.208Z,8
2022-11-29T10:03:14.395Z,8.1
2022-11-29T10:05:15.617Z,8.2
2022-11-29T10:07:16.895Z,8.1
2022-11-29T10:09:18.104Z,8.1
2022-11-29T10:11:19.324Z,8.1
2022-11-29T10:13:23.818Z,8
2022-11-29T10:15:25.063Z,8.1
2022-11-29T10:17:27.860Z,8.1
2022-11-29T10:19:29.064Z,8.2
2022-11-29T10:21:30.311Z,8.3
2022-11-29T10:23:31.526Z,8.3
2022-11-29T10:25:32.764Z,8.3
2022-11-29T10:27:37.283Z,8.3
2022-11-29T10:29:38.554Z,8.3
2022-11-29T10:31:39.801Z,8.3
2022-11-29T10:38:45.777Z,8.4
2022-11-29T10:40:50.283Z,8.4
2022-11-29T10:50:56.500Z,8.4
2022-11-29T10:53:00.130Z,8.4
2022-11-29T10:57:03.445Z,8.5
2022-11-29T10:59:04.721Z,8.3
2022-11-29T11:01:06.005Z,8.3
2022-11-29T11:03:07.208Z,8.3
2022-11-29T11:07:09.694Z,8.5
2022-11-29T11:09:14.189Z,8.6
2022-11-29T11:11:15.435Z,8.7
2022-11-29T11:15:17.999Z,8.7
2022-11-29T11:17:19.160Z,8.7
2022-11-29T11:19:20.442Z,8.7
2022-11-29T11:21:21.923Z,8.7
2022-11-29T11:23:26.203Z,8.8
2022-11-29T11:25:27.438Z,8.8
2022-11-29T11:27:28.665Z,8.8
2022-11-29T11:29:57.049Z,8.8
2022-11-29T11:31:58.256Z,8.8
2022-11-29T11:33:59.495Z,8.8
2022-11-29T11:36:04.011Z,8.9
2022-11-29T11:38:05.251Z,8.9
2022-11-29T11:40:06.546Z,8.9
2022-11-29T11:42:07.733Z,9
2022-11-29T11:44:15.306Z,9.2
2022-11-29T11:46:15.172Z,9.1
2022-11-29T11:48:11.477Z,8.9
2022-11-29T11:50:15.964Z,8.8
2022-11-29T11:52:17.223Z,8.9
2022-11-29T11:54:18.487Z,8.9
2022-11-29T11:56:19.722Z,8.8
2022-11-29T11:58:20.946Z,8.8
2022-11-29T12:00:47.640Z,8.8
2022-11-29T12:02:23.517Z,8.7
2022-11-29T12:04:27.953Z,8.5
2022-11-29T12:16:35.492Z,8.5
2022-11-29T12:18:39.948Z,8.5
2022-11-29T12:23:44.668Z,8.8
2022-11-29T12:25:45.963Z,8.8
2022-11-29T12:27:47.154Z,8.8
2022-11-29T12:29:48.406Z,8.8
2022-11-29T12:31:52.891Z,8.8
2022-11-29T12:33:54.183Z,8.8
2022-11-29T12:35:55.391Z,8.9
2022-11-29T12:37:56.635Z,8.8
2022-11-29T12:39:57.904Z,8.8
2022-11-29T12:41:59.110Z,8.9
2022-11-29T12:44:00.351Z,8.9
2022-11-29T12:46:04.946Z,8.9
2022-11-29T12:48:06.096Z,8.9
2022-11-29T12:50:07.356Z,9
2022-11-29T12:52:08.559Z,9
2022-11-29T12:54:09.800Z,9.2
2022-11-29T12:56:11.027Z,9.3
2022-11-29T13:00:16.804Z,9
2022-11-29T13:02:18.032Z,9
2022-11-29T13:04:19.278Z,9
2022-11-29T13:12:24.246Z,9.1
2022-11-29T13:14:43.337Z,9.1
2022-11-29T13:16:31.471Z,9.1
2022-11-29T13:18:31.278Z,9.1
2022-11-29T13:19:33.519Z,9.2
2022-11-29T13:21:34.804Z,9.3
2022-11-29T13:23:46.104Z,9.3
2022-11-29T13:25:37.273Z,9.2
2022-11-29T13:29:43.020Z,9.3
2022-11-29T13:31:44.337Z,9.3
2022-11-29T13:33:45.508Z,9.3
2022-11-29T13:35:46.746Z,9.3
2022-11-29T13:37:52.073Z,9.3
2022-11-29T13:39:49.234Z,9.3
2022-11-29T13:41:53.728Z,9.4
2022-11-29T13:43:54.972Z,9.4
2022-11-29T13:45:56.205Z,9.3
2022-11-29T13:47:57.465Z,9.4
2022-11-29T13:49:58.772Z,9.3
2022-11-29T13:51:59.984Z,9.3
2022-11-29T13:54:01.239Z,9.3
2022-11-29T13:56:05.730Z,9.3
2022-11-29T13:58:17.348Z,9.4
2022-11-29T14:00:08.282Z,9.4
2022-11-29T14:10:26.401Z,9.3
2022-11-29T14:12:19.012Z,9.2
2022-11-29T14:14:20.271Z,9.3
2022-11-29T14:19:26.732Z,9.3
2022-11-29T14:21:26.242Z,9.2
2022-11-29T14:23:30.744Z,9.2
2022-11-29T14:25:51.004Z,9.2
2022-11-29T14:29:34.443Z,9.2
2022-11-29T14:31:35.719Z,9.2
2022-11-29T14:33:36.950Z,9.2
2022-11-29T14:35:38.191Z,9.2
2022-11-29T14:37:42.727Z,9.1
2022-11-29T14:39:43.936Z,9.1
2022-11-29T14:41:45.150Z,9.1
2022-11-29T14:43:46.411Z,9.1
2022-11-29T14:45:47.656Z,9.1
2022-11-29T14:47:48.868Z,9.1
2022-11-29T14:49:50.118Z,9.1
2022-11-29T14:51:54.643Z,9.1
2022-11-29T14:53:55.869Z,9.1
2022-11-29T14:59:59.585Z,9
2022-11-29T15:02:00.962Z,9
2022-11-29T15:04:02.169Z,9.1
2022-11-29T15:06:06.615Z,9
2022-11-29T15:08:07.838Z,9
2022-11-29T15:10:09.099Z,9
2022-11-29T15:12:37.477Z,8.9
2022-11-29T15:18:44.454Z,8.9
2022-11-29T15:20:45.678Z,8.9
2022-11-29T15:26:49.417Z,8.8
2022-11-29T15:36:58.880Z,8.8
2022-11-29T15:39:00.139Z,8.7
2022-11-29T15:43:02.589Z,8.7
2022-11-29T15:45:03.852Z,8.7
2022-11-29T15:47:08.345Z,8.7
2022-11-29T15:49:09.591Z,8.7
2022-11-29T15:51:10.832Z,8.7
2022-11-29T15:53:12.061Z,8.7
2022-11-29T15:55:13.380Z,8.7
2022-11-29T15:57:14.557Z,8.7
2022-11-29T15:59:15.793Z,8.7
2022-11-29T16:01:20.371Z,8.7
2022-11-29T16:03:21.539Z,8.7
2022-11-29T16:05:22.774Z,8.7
2022-11-29T16:08:27.783Z,8.7
2022-11-29T16:10:34.838Z,8.6
2022-11-29T16:12:30.260Z,8.6
2022-11-29T16:14:34.762Z,8.6
2022-11-29T16:16:36.057Z,8.6
2022-11-29T16:18:37.254Z,8.6
2022-11-29T16:20:38.500Z,8.6
2022-11-29T16:22:39.714Z,8.5
2022-11-29T16:24:40.958Z,8.5
2022-11-29T16:26:42.202Z,8.5
2022-11-29T16:28:46.736Z,8.5
2022-11-29T16:30:47.966Z,8.5
2022-11-29T16:32:49.208Z,8.5
2022-11-29T16:34:50.459Z,8.5
2022-11-29T16:36:54.457Z,8.5
2022-11-29T16:38:52.925Z,8.6
2022-11-29T16:40:54.179Z,8.5
2022-11-29T16:42:58.741Z,8.5
2022-11-29T16:44:59.959Z,8.5
2022-11-29T16:47:01.203Z,8.5
2022-11-29T16:49:02.442Z,8.5
2022-11-29T16:51:03.699Z,8.5
2022-11-29T16:53:04.946Z,8.5
2022-11-29T16:57:10.672Z,8.5
2022-11-29T16:59:26.293Z,8.5
2022-11-29T17:01:13.207Z,8.5
2022-11-29T17:02:15.445Z,8.5
2022-11-29T17:04:23.677Z,8.5
2022-11-29T17:08:19.124Z,8.5
2022-11-29T17:12:24.879Z,8.5
2022-11-29T17:14:26.103Z,8.6
2022-11-29T17:16:27.385Z,8.6
2022-11-29T17:18:28.579Z,8.6
2022-11-29T17:20:29.840Z,8.6
2022-11-29T17:22:31.093Z,8.6
2022-11-29T17:24:35.592Z,8.7
2022-11-29T17:26:36.837Z,8.6
2022-11-29T17:28:38.075Z,8.6
2022-11-29T17:30:39.359Z,8.6
2022-11-29T17:32:40.573Z,8.6
2022-11-29T17:34:41.797Z,8.6
2022-11-29T17:36:43.031Z,8.6
2022-11-29T17:38:47.515Z,8.6
2022-11-29T17:40:48.768Z,8.6
2022-11-29T17:42:50.001Z,8.6
2022-11-29T17:52:59.488Z,8.6
2022-11-29T17:55:00.728Z,8.6
2022-11-29T17:57:01.994Z,8.6
2022-11-29T18:00:05.485Z,8.7
2022-11-29T18:02:06.760Z,8.7
2022-11-29T18:04:07.945Z,8.7
2022-11-29T18:06:12.446Z,8.7
2022-11-29T18:08:13.668Z,8.7
2022-11-29T18:10:14.928Z,8.7
2022-11-29T18:12:16.164Z,8.7
2022-11-29T18:14:17.409Z,8.7
2022-11-29T18:16:18.696Z,8.7
2022-11-29T18:18:19.883Z,8.7
2022-11-29T18:20:24.410Z,8.7
2022-11-29T18:22:25.641Z,8.7
2022-11-29T18:26:28.148Z,8.7
2022-11-29T18:28:29.363Z,8.7
2022-11-29T18:36:37.590Z,8.8
2022-11-29T18:38:38.852Z,8.7
2022-11-29T18:40:40.110Z,8.7
2022-11-29T18:42:41.349Z,8.7
2022-11-29T18:44:42.586Z,8.7
2022-11-29T18:46:43.827Z,8.7
2022-11-29T18:48:48.333Z,8.7
2022-11-29T18:50:49.574Z,8.7
2022-11-29T18:52:50.823Z,8.7
2022-11-29T18:55:19.185Z,8.7
2022-11-29T18:57:20.425Z,8.7
2022-11-29T19:03:27.421Z,8.7
2022-11-29T19:05:28.642Z,8.7
2022-11-29T19:07:29.894Z,8.7
2022-11-29T19:09:31.130Z,8.7
2022-11-29T19:11:32.384Z,8.7
2022-11-29T19:13:33.595Z,8.7
2022-11-29T19:15:38.117Z,8.6
2022-11-29T19:17:42.950Z,8.7
2022-11-29T19:19:40.582Z,8.6
2022-11-29T19:21:41.893Z,8.7
2022-11-29T19:23:43.055Z,8.7
2022-11-29T19:31:51.316Z,8.6
2022-11-29T19:33:52.528Z,8.6
2022-11-29T19:41:57.508Z,8.6
2022-11-29T19:44:01.997Z,8.6
2022-11-29T19:48:04.468Z,8.6
2022-11-29T19:49:06.724Z,8.6
2022-11-29T19:51:07.976Z,8.6
2022-11-29T19:53:09.192Z,8.6
2022-11-29T19:55:10.450Z,8.5
2022-11-29T19:57:14.924Z,8.6
2022-11-29T20:01:17.513Z,8.6
2022-11-29T20:03:18.676Z,8.6
2022-11-29T20:05:19.896Z,8.6
2022-11-29T20:15:29.381Z,8.5
2022-11-29T20:17:30.564Z,8.5
2022-11-29T20:19:31.820Z,8.4
2022-11-29T20:21:33.051Z,8.4
2022-11-29T20:23:34.282Z,8.3
2022-11-29T20:25:38.827Z,8.3
2022-11-29T20:27:40.043Z,8.4
2022-11-29T20:29:41.276Z,8.4
2022-11-29T20:31:49.159Z,8.4
2022-11-29T20:39:50.759Z,8.2
2022-11-29T20:41:51.994Z,8.1
2022-11-29T20:43:53.213Z,8.1
2022-11-29T20:49:03.118Z,8.1
2022-11-29T20:57:06.160Z,8
2022-11-29T20:59:07.392Z,8
2022-11-29T21:01:08.667Z,8
2022-11-29T21:03:09.882Z,7.9
2022-11-29T21:05:11.103Z,7.9
2022-11-29T21:07:15.604Z,7.9
2022-11-29T21:09:16.838Z,7.9
2022-11-29T21:11:18.066Z,7.9
2022-11-29T21:13:19.305Z,7.9
2022-11-29T21:15:20.575Z,7.9
2022-11-29T21:17:21.773Z,7.8
2022-11-29T21:19:23.004Z,7.8
2022-11-29T21:21:27.499Z,7.7
2022-11-29T21:23:28.737Z,7.8
2022-11-29T21:27:31.279Z,7.7
2022-11-29T21:29:32.450Z,7.7
2022-11-29T21:31:33.718Z,7.6
2022-11-29T21:35:39.388Z,7.6
2022-11-29T21:37:40.628Z,7.6
2022-11-29T21:40:44.110Z,7.6
2022-11-29T21:42:45.365Z,7.6
2022-11-29T21:44:46.807Z,7.6
2022-11-29T21:46:47.816Z,7.6
2022-11-29T21:48:52.273Z,7.5
2022-11-29T21:50:53.500Z,7.5
2022-11-29T21:52:54.719Z,7.5
2022-11-29T21:54:55.967Z,7.5
2022-11-29T21:56:58.748Z,7.5
2022-11-29T21:58:59.938Z,7.5
2022-11-29T22:01:01.160Z,7.4
2022-11-29T22:03:05.729Z,7.4
2022-11-29T22:07:08.144Z,7.5
2022-11-29T22:09:09.340Z,7.4
2022-11-29T22:11:10.600Z,7.5
2022-11-29T22:13:11.780Z,7.5
2022-11-29T22:15:13.029Z,7.4
2022-11-29T22:17:17.551Z,7.4
2022-11-29T22:19:18.717Z,7.4
2022-11-29T22:21:19.955Z,7.3
2022-11-29T22:23:21.164Z,7.3
2022-11-29T22:25:22.418Z,7.3
2022-11-29T22:27:23.625Z,7.3
2022-11-29T22:31:29.363Z,7.2
2022-11-29T22:33:30.551Z,7.2
2022-11-29T22:35:31.791Z,7.2
2022-11-29T22:46:02.455Z,7.1
2022-11-29T22:48:03.709Z,7.1
2022-11-29T22:50:04.923Z,7.1
2022-11-29T22:52:06.141Z,7.1
2022-11-29T22:54:07.378Z,7.1
2022-11-29T22:56:08.555Z,7.1
2022-11-29T22:58:13.090Z,7.1
2022-11-29T23:02:15.528Z,7.1
2022-11-29T23:04:16.704Z,7.1
2022-11-29T23:06:17.944Z,7.1
2022-11-29T23:08:19.161Z,7.1
2022-11-29T23:10:20.386Z,7.1
2022-11-29T23:12:24.857Z,7
2022-11-29T23:14:26.052Z,7.1
2022-11-29T23:16:27.314Z,7
2022-11-29T23:18:28.514Z,7
2022-11-29T23:20:29.724Z,7
2022-11-29T23:22:31.000Z,7
2022-11-29T23:24:32.218Z,7
2022-11-29T23:26:36.685Z,7
2022-11-29T23:28:37.906Z,7
2022-11-29T23:31:41.398Z,6.9
2022-11-29T23:33:42.589Z,7
2022-11-29T23:41:50.718Z,7
2022-11-29T23:43:51.936Z,7
2022-11-29T23:45:53.177Z,7
2022-11-29T23:47:54.368Z,7
